sensor_id;sensor_type;location;lat;lon;timestamp;P1;durP1;ratioP1;P2;durP2;ratioP2
20721;SDS011;10522;52.198;9.890;2023-12-20T00:00:37;7.97;;;6.33;;
20721;SDS011;10522;52.198;9.890;2023-12-20T00:03:03;6.80;;;5.53;;
20721;SDS011;10522;52.198;9.890;2023-12-20T00:05:29;7.60;;;5.07;;
20721;SDS011;10522;52.198;9.890;2023-12-20T00:07:57;8.17;;;5.47;;
20721;SDS011;10522;52.198;9.890;2023-12-20T00:10:22;7.87;;;5.60;;
20721;SDS011;10522;52.198;9.890;2023-12-20T00:12:48;6.90;;;5.20;;
20721;SDS011;10522;52.198;9.890;2023-12-20T00:15:14;7.33;;;5.30;;
20721;SDS011;10522;52.198;9.890;2023-12-20T00:17:39;7.53;;;5.20;;
20721;SDS011;10522;52.198;9.890;2023-12-20T00:20:05;5.80;;;4.70;;
20721;SDS011;10522;52.198;9.890;2023-12-20T00:22:31;7.10;;;4.83;;
20721;SDS011;10522;52.198;9.890;2023-12-20T00:24:57;6.03;;;4.90;;
20721;SDS011;10522;52.198;9.890;2023-12-20T00:27:22;7.27;;;5.03;;
20721;SDS011;10522;52.198;9.890;2023-12-20T00:29:48;6.10;;;4.97;;
20721;SDS011;10522;52.198;9.890;2023-12-20T00:32:15;7.50;;;4.60;;
20721;SDS011;10522;52.198;9.890;2023-12-20T00:34:41;6.40;;;4.63;;
20721;SDS011;10522;52.198;9.890;2023-12-20T00:37:06;7.23;;;4.73;;
20721;SDS011;10522;52.198;9.890;2023-12-20T00:39:32;11.00;;;5.20;;
20721;SDS011;10522;52.198;9.890;2023-12-20T00:41:58;11.60;;;5.23;;
20721;SDS011;10522;52.198;9.890;2023-12-20T00:44:23;15.37;;;6.27;;
20721;SDS011;10522;52.198;9.890;2023-12-20T00:46:49;11.80;;;5.43;;
20721;SDS011;10522;52.198;9.890;2023-12-20T00:49:14;11.67;;;6.23;;
20721;SDS011;10522;52.198;9.890;2023-12-20T00:51:40;13.10;;;5.50;;
20721;SDS011;10522;52.198;9.890;2023-12-20T00:54:05;8.20;;;4.67;;
20721;SDS011;10522;52.198;9.890;2023-12-20T00:56:31;8.63;;;4.90;;
20721;SDS011;10522;52.198;9.890;2023-12-20T00:58:57;7.83;;;5.37;;
20721;SDS011;10522;52.198;9.890;2023-12-20T01:01:22;12.00;;;4.90;;
20721;SDS011;10522;52.198;9.890;2023-12-20T01:03:48;9.73;;;5.67;;
20721;SDS011;10522;52.198;9.890;2023-12-20T01:06:16;13.87;;;5.17;;
20721;SDS011;10522;52.198;9.890;2023-12-20T01:08:41;13.40;;;5.50;;
20721;SDS011;10522;52.198;9.890;2023-12-20T01:11:07;15.37;;;5.70;;
20721;SDS011;10522;52.198;9.890;2023-12-20T01:13:33;13.90;;;4.63;;
20721;SDS011;10522;52.198;9.890;2023-12-20T01:15:58;10.77;;;4.80;;
20721;SDS011;10522;52.198;9.890;2023-12-20T01:18:24;13.30;;;5.37;;
20721;SDS011;10522;52.198;9.890;2023-12-20T01:20:49;8.50;;;3.97;;
20721;SDS011;10522;52.198;9.890;2023-12-20T01:23:15;13.93;;;3.30;;
20721;SDS011;10522;52.198;9.890;2023-12-20T01:25:40;9.47;;;3.03;;
20721;SDS011;10522;52.198;9.890;2023-12-20T01:28:06;5.33;;;2.33;;
20721;SDS011;10522;52.198;9.890;2023-12-20T01:30:32;8.43;;;2.37;;
20721;SDS011;10522;52.198;9.890;2023-12-20T01:32:59;9.03;;;2.33;;
20721;SDS011;10522;52.198;9.890;2023-12-20T01:35:25;7.17;;;2.03;;
20721;SDS011;10522;52.198;9.890;2023-12-20T01:37:51;6.37;;;1.47;;
20721;SDS011;10522;52.198;9.890;2023-12-20T01:40:16;9.73;;;1.67;;
20721;SDS011;10522;52.198;9.890;2023-12-20T01:42:42;8.20;;;1.90;;
20721;SDS011;10522;52.198;9.890;2023-12-20T01:45:08;4.93;;;1.50;;
20721;SDS011;10522;52.198;9.890;2023-12-20T01:47:33;4.87;;;1.57;;
20721;SDS011;10522;52.198;9.890;2023-12-20T01:49:59;8.97;;;1.57;;
20721;SDS011;10522;52.198;9.890;2023-12-20T01:52:25;8.20;;;1.27;;
20721;SDS011;10522;52.198;9.890;2023-12-20T01:54:52;9.60;;;2.03;;
20721;SDS011;10522;52.198;9.890;2023-12-20T01:57:19;11.10;;;1.80;;
20721;SDS011;10522;52.198;9.890;2023-12-20T01:59:45;7.93;;;1.70;;
20721;SDS011;10522;52.198;9.890;2023-12-20T02:02:11;9.10;;;1.57;;
20721;SDS011;10522;52.198;9.890;2023-12-20T02:04:37;11.77;;;3.77;;
20721;SDS011;10522;52.198;9.890;2023-12-20T02:07:03;8.30;;;1.53;;
20721;SDS011;10522;52.198;9.890;2023-12-20T02:09:29;6.10;;;1.30;;
20721;SDS011;10522;52.198;9.890;2023-12-20T02:11:55;6.03;;;1.40;;
20721;SDS011;10522;52.198;9.890;2023-12-20T02:14:21;13.33;;;1.77;;
20721;SDS011;10522;52.198;9.890;2023-12-20T02:16:46;6.27;;;1.77;;
20721;SDS011;10522;52.198;9.890;2023-12-20T02:19:13;6.53;;;1.50;;
20721;SDS011;10522;52.198;9.890;2023-12-20T02:21:40;9.47;;;2.40;;
20721;SDS011;10522;52.198;9.890;2023-12-20T02:24:05;8.33;;;1.80;;
20721;SDS011;10522;52.198;9.890;2023-12-20T02:26:34;8.57;;;2.07;;
20721;SDS011;10522;52.198;9.890;2023-12-20T02:29:00;6.97;;;1.87;;
20721;SDS011;10522;52.198;9.890;2023-12-20T02:31:26;5.10;;;1.83;;
20721;SDS011;10522;52.198;9.890;2023-12-20T02:33:52;6.30;;;1.80;;
20721;SDS011;10522;52.198;9.890;2023-12-20T02:36:17;4.53;;;1.67;;
20721;SDS011;10522;52.198;9.890;2023-12-20T02:38:43;10.87;;;1.90;;
20721;SDS011;10522;52.198;9.890;2023-12-20T02:41:08;7.30;;;1.60;;
20721;SDS011;10522;52.198;9.890;2023-12-20T02:43:34;4.90;;;1.80;;
20721;SDS011;10522;52.198;9.890;2023-12-20T02:46:00;8.57;;;1.90;;
20721;SDS011;10522;52.198;9.890;2023-12-20T02:48:25;8.50;;;1.97;;
20721;SDS011;10522;52.198;9.890;2023-12-20T02:50:51;5.70;;;1.80;;
20721;SDS011;10522;52.198;9.890;2023-12-20T02:53:16;3.27;;;1.93;;
20721;SDS011;10522;52.198;9.890;2023-12-20T02:55:42;4.53;;;1.57;;
20721;SDS011;10522;52.198;9.890;2023-12-20T02:58:11;7.70;;;1.60;;
20721;SDS011;10522;52.198;9.890;2023-12-20T03:00:36;5.30;;;1.90;;
20721;SDS011;10522;52.198;9.890;2023-12-20T03:03:02;2.87;;;1.30;;
20721;SDS011;10522;52.198;9.890;2023-12-20T03:05:27;7.13;;;2.07;;
20721;SDS011;10522;52.198;9.890;2023-12-20T03:07:56;4.93;;;2.10;;
20721;SDS011;10522;52.198;9.890;2023-12-20T03:10:22;5.03;;;1.40;;
20721;SDS011;10522;52.198;9.890;2023-12-20T03:12:48;6.87;;;1.73;;
20721;SDS011;10522;52.198;9.890;2023-12-20T03:15:14;6.07;;;1.43;;
20721;SDS011;10522;52.198;9.890;2023-12-20T03:17:39;8.13;;;1.43;;
20721;SDS011;10522;52.198;9.890;2023-12-20T03:20:05;2.10;;;0.80;;
20721;SDS011;10522;52.198;9.890;2023-12-20T03:22:31;5.00;;;1.20;;
20721;SDS011;10522;52.198;9.890;2023-12-20T03:24:57;2.17;;;1.63;;
20721;SDS011;10522;52.198;9.890;2023-12-20T03:27:22;2.67;;;0.87;;
20721;SDS011;10522;52.198;9.890;2023-12-20T03:29:48;13.63;;;1.53;;
20721;SDS011;10522;52.198;9.890;2023-12-20T03:32:14;10.73;;;1.57;;
20721;SDS011;10522;52.198;9.890;2023-12-20T03:34:39;14.33;;;1.70;;
20721;SDS011;10522;52.198;9.890;2023-12-20T03:37:05;5.97;;;1.83;;
20721;SDS011;10522;52.198;9.890;2023-12-20T03:39:30;6.40;;;1.47;;
20721;SDS011;10522;52.198;9.890;2023-12-20T03:41:56;5.03;;;1.40;;
20721;SDS011;10522;52.198;9.890;2023-12-20T03:44:21;4.00;;;1.27;;
20721;SDS011;10522;52.198;9.890;2023-12-20T03:46:47;2.80;;;1.43;;
20721;SDS011;10522;52.198;9.890;2023-12-20T03:49:14;5.43;;;1.60;;
20721;SDS011;10522;52.198;9.890;2023-12-20T03:51:39;6.90;;;1.73;;
20721;SDS011;10522;52.198;9.890;2023-12-20T03:54:05;11.40;;;2.17;;
20721;SDS011;10522;52.198;9.890;2023-12-20T03:56:30;5.40;;;1.50;;
20721;SDS011;10522;52.198;9.890;2023-12-20T03:58:56;2.60;;;1.30;;
20721;SDS011;10522;52.198;9.890;2023-12-20T04:01:22;7.43;;;1.80;;
20721;SDS011;10522;52.198;9.890;2023-12-20T04:03:48;7.63;;;1.63;;
20721;SDS011;10522;52.198;9.890;2023-12-20T04:06:17;7.23;;;1.50;;
20721;SDS011;10522;52.198;9.890;2023-12-20T04:08:43;11.83;;;1.97;;
20721;SDS011;10522;52.198;9.890;2023-12-20T04:11:09;2.07;;;1.17;;
20721;SDS011;10522;52.198;9.890;2023-12-20T04:13:35;6.47;;;1.70;;
20721;SDS011;10522;52.198;9.890;2023-12-20T04:16:00;9.43;;;1.53;;
20721;SDS011;10522;52.198;9.890;2023-12-20T04:18:26;8.47;;;2.10;;
20721;SDS011;10522;52.198;9.890;2023-12-20T04:20:53;5.10;;;2.13;;
20721;SDS011;10522;52.198;9.890;2023-12-20T04:23:19;9.83;;;2.10;;
20721;SDS011;10522;52.198;9.890;2023-12-20T04:25:44;4.93;;;1.67;;
20721;SDS011;10522;52.198;9.890;2023-12-20T04:28:11;7.30;;;1.80;;
20721;SDS011;10522;52.198;9.890;2023-12-20T04:30:36;10.83;;;2.07;;
20721;SDS011;10522;52.198;9.890;2023-12-20T04:33:02;8.23;;;2.10;;
20721;SDS011;10522;52.198;9.890;2023-12-20T04:35:28;10.23;;;2.30;;
20721;SDS011;10522;52.198;9.890;2023-12-20T04:37:53;6.50;;;1.67;;
20721;SDS011;10522;52.198;9.890;2023-12-20T04:40:19;7.73;;;2.27;;
20721;SDS011;10522;52.198;9.890;2023-12-20T04:42:45;10.30;;;2.57;;
20721;SDS011;10522;52.198;9.890;2023-12-20T04:45:10;7.47;;;2.53;;
20721;SDS011;10522;52.198;9.890;2023-12-20T04:47:38;4.97;;;1.77;;
20721;SDS011;10522;52.198;9.890;2023-12-20T04:50:04;8.63;;;2.13;;
20721;SDS011;10522;52.198;9.890;2023-12-20T04:52:30;7.50;;;2.60;;
20721;SDS011;10522;52.198;9.890;2023-12-20T04:54:56;4.90;;;1.60;;
20721;SDS011;10522;52.198;9.890;2023-12-20T04:57:21;9.50;;;2.20;;
20721;SDS011;10522;52.198;9.890;2023-12-20T04:59:47;4.73;;;1.80;;
20721;SDS011;10522;52.198;9.890;2023-12-20T05:02:12;12.20;;;1.87;;
20721;SDS011;10522;52.198;9.890;2023-12-20T05:04:38;7.50;;;2.00;;
20721;SDS011;10522;52.198;9.890;2023-12-20T05:07:03;6.20;;;2.70;;
20721;SDS011;10522;52.198;9.890;2023-12-20T05:09:30;8.27;;;2.80;;
20721;SDS011;10522;52.198;9.890;2023-12-20T05:11:55;10.70;;;2.10;;
20721;SDS011;10522;52.198;9.890;2023-12-20T05:14:21;5.83;;;1.93;;
20721;SDS011;10522;52.198;9.890;2023-12-20T05:16:46;12.53;;;2.63;;
20721;SDS011;10522;52.198;9.890;2023-12-20T05:19:12;9.70;;;2.30;;
20721;SDS011;10522;52.198;9.890;2023-12-20T05:21:39;6.73;;;2.00;;
20721;SDS011;10522;52.198;9.890;2023-12-20T05:24:04;9.87;;;2.30;;
20721;SDS011;10522;52.198;9.890;2023-12-20T05:26:30;10.63;;;2.53;;
20721;SDS011;10522;52.198;9.890;2023-12-20T05:28:56;9.70;;;2.97;;
20721;SDS011;10522;52.198;9.890;2023-12-20T05:31:21;9.40;;;2.70;;
20721;SDS011;10522;52.198;9.890;2023-12-20T05:33:47;10.47;;;2.93;;
20721;SDS011;10522;52.198;9.890;2023-12-20T05:36:12;11.17;;;3.10;;
20721;SDS011;10522;52.198;9.890;2023-12-20T05:38:40;5.97;;;2.37;;
20721;SDS011;10522;52.198;9.890;2023-12-20T05:41:05;8.73;;;2.87;;
20721;SDS011;10522;52.198;9.890;2023-12-20T05:43:31;7.03;;;2.57;;
20721;SDS011;10522;52.198;9.890;2023-12-20T05:45:57;9.50;;;2.47;;
20721;SDS011;10522;52.198;9.890;2023-12-20T05:48:23;6.70;;;2.13;;
20721;SDS011;10522;52.198;9.890;2023-12-20T05:50:49;5.50;;;1.90;;
20721;SDS011;10522;52.198;9.890;2023-12-20T05:53:14;8.17;;;2.80;;
20721;SDS011;10522;52.198;9.890;2023-12-20T05:55:40;11.17;;;3.63;;
20721;SDS011;10522;52.198;9.890;2023-12-20T05:58:05;5.20;;;1.93;;
20721;SDS011;10522;52.198;9.890;2023-12-20T06:00:31;8.20;;;3.67;;
20721;SDS011;10522;52.198;9.890;2023-12-20T06:02:56;14.77;;;4.47;;
20721;SDS011;10522;52.198;9.890;2023-12-20T06:05:22;5.73;;;2.60;;
20721;SDS011;10522;52.198;9.890;2023-12-20T06:07:48;17.00;;;3.40;;
20721;SDS011;10522;52.198;9.890;2023-12-20T06:10:15;14.43;;;3.00;;
20721;SDS011;10522;52.198;9.890;2023-12-20T06:12:41;11.33;;;2.80;;
20721;SDS011;10522;52.198;9.890;2023-12-20T06:15:07;11.30;;;3.10;;
20721;SDS011;10522;52.198;9.890;2023-12-20T06:17:33;11.80;;;2.63;;
20721;SDS011;10522;52.198;9.890;2023-12-20T06:20:00;7.47;;;2.93;;
20721;SDS011;10522;52.198;9.890;2023-12-20T06:22:26;9.13;;;2.80;;
20721;SDS011;10522;52.198;9.890;2023-12-20T06:24:51;14.90;;;3.73;;
20721;SDS011;10522;52.198;9.890;2023-12-20T06:27:17;11.40;;;3.57;;
20721;SDS011;10522;52.198;9.890;2023-12-20T06:29:45;20.37;;;4.40;;
20721;SDS011;10522;52.198;9.890;2023-12-20T06:32:10;10.00;;;3.70;;
20721;SDS011;10522;52.198;9.890;2023-12-20T06:34:36;9.50;;;3.50;;
20721;SDS011;10522;52.198;9.890;2023-12-20T06:37:03;10.20;;;4.03;;
20721;SDS011;10522;52.198;9.890;2023-12-20T06:39:30;11.67;;;2.97;;
20721;SDS011;10522;52.198;9.890;2023-12-20T06:41:55;14.07;;;2.77;;
20721;SDS011;10522;52.198;9.890;2023-12-20T06:44:21;13.27;;;3.03;;
20721;SDS011;10522;52.198;9.890;2023-12-20T06:46:47;18.13;;;3.13;;
20721;SDS011;10522;52.198;9.890;2023-12-20T06:49:12;8.13;;;3.83;;
20721;SDS011;10522;52.198;9.890;2023-12-20T06:51:38;10.07;;;3.37;;
20721;SDS011;10522;52.198;9.890;2023-12-20T06:54:03;10.90;;;3.00;;
20721;SDS011;10522;52.198;9.890;2023-12-20T06:56:29;5.73;;;2.73;;
20721;SDS011;10522;52.198;9.890;2023-12-20T06:58:55;16.93;;;2.80;;
20721;SDS011;10522;52.198;9.890;2023-12-20T07:01:21;12.27;;;3.07;;
20721;SDS011;10522;52.198;9.890;2023-12-20T07:03:47;12.63;;;3.17;;
20721;SDS011;10522;52.198;9.890;2023-12-20T07:06:20;11.67;;;2.90;;
20721;SDS011;10522;52.198;9.890;2023-12-20T07:08:46;11.23;;;2.50;;
20721;SDS011;10522;52.198;9.890;2023-12-20T07:11:12;10.67;;;3.27;;
20721;SDS011;10522;52.198;9.890;2023-12-20T07:13:38;14.87;;;3.43;;
20721;SDS011;10522;52.198;9.890;2023-12-20T07:16:04;10.57;;;2.70;;
20721;SDS011;10522;52.198;9.890;2023-12-20T07:18:29;6.23;;;2.93;;
20721;SDS011;10522;52.198;9.890;2023-12-20T07:20:55;11.07;;;3.40;;
20721;SDS011;10522;52.198;9.890;2023-12-20T07:23:21;10.70;;;3.20;;
20721;SDS011;10522;52.198;9.890;2023-12-20T07:25:46;17.37;;;3.53;;
20721;SDS011;10522;52.198;9.890;2023-12-20T07:28:12;7.30;;;2.37;;
20721;SDS011;10522;52.198;9.890;2023-12-20T07:30:38;20.60;;;4.03;;
20721;SDS011;10522;52.198;9.890;2023-12-20T07:33:04;8.70;;;3.13;;
20721;SDS011;10522;52.198;9.890;2023-12-20T07:35:30;18.03;;;3.33;;
20721;SDS011;10522;52.198;9.890;2023-12-20T07:37:55;10.83;;;2.33;;
20721;SDS011;10522;52.198;9.890;2023-12-20T07:40:21;4.83;;;2.07;;
20721;SDS011;10522;52.198;9.890;2023-12-20T07:42:46;24.10;;;2.80;;
20721;SDS011;10522;52.198;9.890;2023-12-20T07:45:12;16.60;;;3.13;;
20721;SDS011;10522;52.198;9.890;2023-12-20T07:47:38;18.00;;;3.03;;
20721;SDS011;10522;52.198;9.890;2023-12-20T07:50:03;10.90;;;3.50;;
20721;SDS011;10522;52.198;9.890;2023-12-20T07:52:29;5.50;;;1.90;;
20721;SDS011;10522;52.198;9.890;2023-12-20T07:54:55;12.07;;;2.83;;
20721;SDS011;10522;52.198;9.890;2023-12-20T07:57:21;14.10;;;2.40;;
20721;SDS011;10522;52.198;9.890;2023-12-20T07:59:46;8.37;;;2.80;;
20721;SDS011;10522;52.198;9.890;2023-12-20T08:02:12;11.63;;;4.63;;
20721;SDS011;10522;52.198;9.890;2023-12-20T08:04:40;15.13;;;3.67;;
20721;SDS011;10522;52.198;9.890;2023-12-20T08:07:06;15.13;;;4.20;;
20721;SDS011;10522;52.198;9.890;2023-12-20T08:09:32;14.60;;;2.97;;
20721;SDS011;10522;52.198;9.890;2023-12-20T08:11:59;14.33;;;3.27;;
20721;SDS011;10522;52.198;9.890;2023-12-20T08:14:24;15.57;;;6.70;;
20721;SDS011;10522;52.198;9.890;2023-12-20T08:16:50;12.80;;;4.00;;
20721;SDS011;10522;52.198;9.890;2023-12-20T08:19:16;12.53;;;4.37;;
20721;SDS011;10522;52.198;9.890;2023-12-20T08:21:42;11.03;;;3.93;;
20721;SDS011;10522;52.198;9.890;2023-12-20T08:24:07;11.97;;;3.97;;
20721;SDS011;10522;52.198;9.890;2023-12-20T08:26:33;12.60;;;3.80;;
20721;SDS011;10522;52.198;9.890;2023-12-20T08:28:59;12.07;;;4.93;;
20721;SDS011;10522;52.198;9.890;2023-12-20T08:31:25;19.23;;;4.27;;
20721;SDS011;10522;52.198;9.890;2023-12-20T08:33:51;17.73;;;3.63;;
20721;SDS011;10522;52.198;9.890;2023-12-20T08:36:18;12.53;;;3.37;;
20721;SDS011;10522;52.198;9.890;2023-12-20T08:38:46;11.47;;;3.33;;
20721;SDS011;10522;52.198;9.890;2023-12-20T08:41:12;7.43;;;2.83;;
20721;SDS011;10522;52.198;9.890;2023-12-20T08:43:38;11.47;;;3.00;;
20721;SDS011;10522;52.198;9.890;2023-12-20T08:46:05;9.17;;;3.00;;
20721;SDS011;10522;52.198;9.890;2023-12-20T08:48:31;8.97;;;4.07;;
20721;SDS011;10522;52.198;9.890;2023-12-20T08:50:56;9.70;;;3.33;;
20721;SDS011;10522;52.198;9.890;2023-12-20T08:53:22;8.37;;;3.17;;
20721;SDS011;10522;52.198;9.890;2023-12-20T08:55:48;11.37;;;3.80;;
20721;SDS011;10522;52.198;9.890;2023-12-20T08:58:14;16.03;;;4.00;;
20721;SDS011;10522;52.198;9.890;2023-12-20T09:00:40;7.07;;;2.70;;
20721;SDS011;10522;52.198;9.890;2023-12-20T09:03:05;12.10;;;3.37;;
20721;SDS011;10522;52.198;9.890;2023-12-20T09:05:31;14.97;;;5.03;;
20721;SDS011;10522;52.198;9.890;2023-12-20T09:07:57;19.53;;;3.97;;
20721;SDS011;10522;52.198;9.890;2023-12-20T09:10:22;18.07;;;3.93;;
20721;SDS011;10522;52.198;9.890;2023-12-20T09:17:53;9.23;;;3.63;;
20721;SDS011;10522;52.198;9.890;2023-12-20T09:20:19;12.93;;;3.67;;
20721;SDS011;10522;52.198;9.890;2023-12-20T09:22:44;8.50;;;3.00;;
20721;SDS011;10522;52.198;9.890;2023-12-20T09:25:10;10.43;;;3.50;;
20721;SDS011;10522;52.198;9.890;2023-12-20T09:27:37;5.97;;;2.73;;
20721;SDS011;10522;52.198;9.890;2023-12-20T09:30:03;16.47;;;3.50;;
20721;SDS011;10522;52.198;9.890;2023-12-20T09:32:30;6.80;;;2.83;;
20721;SDS011;10522;52.198;9.890;2023-12-20T09:34:56;8.43;;;3.47;;
20721;SDS011;10522;52.198;9.890;2023-12-20T09:37:22;8.90;;;2.87;;
20721;SDS011;10522;52.198;9.890;2023-12-20T09:39:51;15.87;;;4.27;;
20721;SDS011;10522;52.198;9.890;2023-12-20T09:42:17;9.17;;;3.67;;
20721;SDS011;10522;52.198;9.890;2023-12-20T09:44:50;17.00;;;3.77;;
20721;SDS011;10522;52.198;9.890;2023-12-20T09:47:16;15.73;;;3.90;;
20721;SDS011;10522;52.198;9.890;2023-12-20T09:49:48;10.93;;;3.67;;
20721;SDS011;10522;52.198;9.890;2023-12-20T09:52:14;8.43;;;2.63;;
20721;SDS011;10522;52.198;9.890;2023-12-20T09:54:41;15.53;;;3.30;;
20721;SDS011;10522;52.198;9.890;2023-12-20T09:57:09;12.20;;;2.60;;
20721;SDS011;10522;52.198;9.890;2023-12-20T09:59:35;11.20;;;3.30;;
20721;SDS011;10522;52.198;9.890;2023-12-20T10:02:00;12.13;;;4.07;;
20721;SDS011;10522;52.198;9.890;2023-12-20T10:04:29;14.53;;;2.87;;
20721;SDS011;10522;52.198;9.890;2023-12-20T10:06:57;14.23;;;4.10;;
20721;SDS011;10522;52.198;9.890;2023-12-20T10:09:28;11.10;;;3.40;;
20721;SDS011;10522;52.198;9.890;2023-12-20T10:11:56;4.40;;;2.57;;
20721;SDS011;10522;52.198;9.890;2023-12-20T10:14:23;5.70;;;2.70;;
20721;SDS011;10522;52.198;9.890;2023-12-20T10:16:49;9.60;;;2.70;;
20721;SDS011;10522;52.198;9.890;2023-12-20T10:19:18;12.23;;;4.00;;
20721;SDS011;10522;52.198;9.890;2023-12-20T10:21:44;8.47;;;3.37;;
20721;SDS011;10522;52.198;9.890;2023-12-20T10:24:11;9.17;;;3.90;;
20721;SDS011;10522;52.198;9.890;2023-12-20T10:26:42;13.83;;;3.60;;
20721;SDS011;10522;52.198;9.890;2023-12-20T10:29:07;8.57;;;3.20;;
20721;SDS011;10522;52.198;9.890;2023-12-20T10:31:33;8.20;;;3.63;;
20721;SDS011;10522;52.198;9.890;2023-12-20T10:34:00;8.03;;;3.43;;
20721;SDS011;10522;52.198;9.890;2023-12-20T10:36:31;11.20;;;4.77;;
20721;SDS011;10522;52.198;9.890;2023-12-20T10:38:58;18.00;;;6.33;;
20721;SDS011;10522;52.198;9.890;2023-12-20T10:41:25;11.10;;;4.93;;
20721;SDS011;10522;52.198;9.890;2023-12-20T10:46:24;10.60;;;4.93;;
20721;SDS011;10522;52.198;9.890;2023-12-20T10:48:53;15.20;;;5.40;;
20721;SDS011;10522;52.198;9.890;2023-12-20T10:51:20;14.17;;;4.47;;
20721;SDS011;10522;52.198;9.890;2023-12-20T10:53:49;8.83;;;4.63;;
20721;SDS011;10522;52.198;9.890;2023-12-20T10:56:17;13.93;;;5.23;;
20721;SDS011;10522;52.198;9.890;2023-12-20T10:58:43;7.53;;;3.60;;
20721;SDS011;10522;52.198;9.890;2023-12-20T11:01:14;12.73;;;5.00;;
20721;SDS011;10522;52.198;9.890;2023-12-20T11:03:48;18.17;;;5.30;;
20721;SDS011;10522;52.198;9.890;2023-12-20T11:11:25;9.07;;;3.50;;
20721;SDS011;10522;52.198;9.890;2023-12-20T11:13:57;13.03;;;4.37;;
20721;SDS011;10522;52.198;9.890;2023-12-20T11:16:24;9.83;;;4.17;;
20721;SDS011;10522;52.198;9.890;2023-12-20T11:18:50;11.90;;;5.13;;
20721;SDS011;10522;52.198;9.890;2023-12-20T11:21:16;10.50;;;5.53;;
20721;SDS011;10522;52.198;9.890;2023-12-20T11:23:42;14.63;;;5.73;;
20721;SDS011;10522;52.198;9.890;2023-12-20T11:26:07;14.47;;;5.70;;
20721;SDS011;10522;52.198;9.890;2023-12-20T11:28:33;31.47;;;6.17;;
20721;SDS011;10522;52.198;9.890;2023-12-20T11:31:00;10.00;;;5.53;;
20721;SDS011;10522;52.198;9.890;2023-12-20T11:33:30;17.03;;;6.83;;
20721;SDS011;10522;52.198;9.890;2023-12-20T11:36:00;19.97;;;7.23;;
20721;SDS011;10522;52.198;9.890;2023-12-20T11:38:27;9.53;;;5.77;;
20721;SDS011;10522;52.198;9.890;2023-12-20T11:41:00;13.70;;;6.67;;
20721;SDS011;10522;52.198;9.890;2023-12-20T11:43:32;10.03;;;4.70;;
20721;SDS011;10522;52.198;9.890;2023-12-20T11:46:03;6.83;;;4.20;;
20721;SDS011;10522;52.198;9.890;2023-12-20T11:48:34;11.77;;;3.73;;
20721;SDS011;10522;52.198;9.890;2023-12-20T11:51:02;9.00;;;3.27;;
20721;SDS011;10522;52.198;9.890;2023-12-20T11:53:33;9.53;;;3.83;;
20721;SDS011;10522;52.198;9.890;2023-12-20T11:55:59;15.40;;;4.20;;
20721;SDS011;10522;52.198;9.890;2023-12-20T11:58:25;8.87;;;3.63;;
20721;SDS011;10522;52.198;9.890;2023-12-20T12:00:50;10.43;;;3.57;;
20721;SDS011;10522;52.198;9.890;2023-12-20T12:03:16;12.53;;;4.23;;
20721;SDS011;10522;52.198;9.890;2023-12-20T12:05:42;13.23;;;4.73;;
20721;SDS011;10522;52.198;9.890;2023-12-20T12:08:07;7.43;;;3.47;;
20721;SDS011;10522;52.198;9.890;2023-12-20T12:10:33;8.00;;;3.17;;
20721;SDS011;10522;52.198;9.890;2023-12-20T12:12:59;6.40;;;1.63;;
20721;SDS011;10522;52.198;9.890;2023-12-20T12:15:25;3.20;;;1.00;;
20721;SDS011;10522;52.198;9.890;2023-12-20T12:17:54;3.17;;;0.63;;
20721;SDS011;10522;52.198;9.890;2023-12-20T12:20:21;1.23;;;0.93;;
20721;SDS011;10522;52.198;9.890;2023-12-20T12:23:00;5.70;;;0.97;;
20721;SDS011;10522;52.198;9.890;2023-12-20T12:25:28;1.30;;;1.07;;
20721;SDS011;10522;52.198;9.890;2023-12-20T12:27:55;2.00;;;0.77;;
20721;SDS011;10522;52.198;9.890;2023-12-20T12:30:23;5.07;;;1.23;;
20721;SDS011;10522;52.198;9.890;2023-12-20T12:32:52;4.57;;;0.93;;
20721;SDS011;10522;52.198;9.890;2023-12-20T12:35:18;4.20;;;0.80;;
20721;SDS011;10522;52.198;9.890;2023-12-20T12:37:45;0.57;;;0.33;;
20721;SDS011;10522;52.198;9.890;2023-12-20T12:40:14;5.70;;;0.60;;
20721;SDS011;10522;52.198;9.890;2023-12-20T12:42:42;0.57;;;0.50;;
20721;SDS011;10522;52.198;9.890;2023-12-20T12:45:09;0.50;;;0.40;;
20721;SDS011;10522;52.198;9.890;2023-12-20T12:47:36;0.93;;;0.50;;
20721;SDS011;10522;52.198;9.890;2023-12-20T12:50:02;0.57;;;0.40;;
20721;SDS011;10522;52.198;9.890;2023-12-20T12:52:28;5.60;;;0.70;;
20721;SDS011;10522;52.198;9.890;2023-12-20T12:54:55;1.87;;;0.53;;
20721;SDS011;10522;52.198;9.890;2023-12-20T12:57:20;3.37;;;0.70;;
20721;SDS011;10522;52.198;9.890;2023-12-20T12:59:46;0.40;;;0.40;;
20721;SDS011;10522;52.198;9.890;2023-12-20T13:02:12;1.17;;;0.50;;
20721;SDS011;10522;52.198;9.890;2023-12-20T13:04:38;1.77;;;0.70;;
20721;SDS011;10522;52.198;9.890;2023-12-20T13:07:05;0.80;;;0.80;;
20721;SDS011;10522;52.198;9.890;2023-12-20T13:09:31;3.10;;;0.90;;
20721;SDS011;10522;52.198;9.890;2023-12-20T13:11:56;5.63;;;1.03;;
20721;SDS011;10522;52.198;9.890;2023-12-20T13:14:22;0.53;;;0.50;;
20721;SDS011;10522;52.198;9.890;2023-12-20T13:16:48;0.50;;;0.50;;
20721;SDS011;10522;52.198;9.890;2023-12-20T13:19:13;2.37;;;0.80;;
20721;SDS011;10522;52.198;9.890;2023-12-20T13:21:39;2.60;;;0.60;;
20721;SDS011;10522;52.198;9.890;2023-12-20T13:24:05;0.87;;;0.77;;
20721;SDS011;10522;52.198;9.890;2023-12-20T13:26:31;0.53;;;0.50;;
20721;SDS011;10522;52.198;9.890;2023-12-20T13:28:57;2.53;;;0.60;;
20721;SDS011;10522;52.198;9.890;2023-12-20T13:31:23;3.10;;;0.80;;
20721;SDS011;10522;52.198;9.890;2023-12-20T13:33:49;1.33;;;0.50;;
20721;SDS011;10522;52.198;9.890;2023-12-20T13:36:14;0.77;;;0.60;;
20721;SDS011;10522;52.198;9.890;2023-12-20T13:38:40;2.73;;;0.60;;
20721;SDS011;10522;52.198;9.890;2023-12-20T13:41:06;3.10;;;0.73;;
20721;SDS011;10522;52.198;9.890;2023-12-20T13:43:31;0.37;;;0.37;;
20721;SDS011;10522;52.198;9.890;2023-12-20T13:45:58;0.60;;;0.60;;
20721;SDS011;10522;52.198;9.890;2023-12-20T13:48:24;0.90;;;0.60;;
20721;SDS011;10522;52.198;9.890;2023-12-20T13:50:49;4.20;;;0.80;;
20721;SDS011;10522;52.198;9.890;2023-12-20T13:53:15;1.80;;;0.40;;
20721;SDS011;10522;52.198;9.890;2023-12-20T13:55:41;1.33;;;0.63;;
20721;SDS011;10522;52.198;9.890;2023-12-20T13:58:07;3.60;;;1.00;;
20721;SDS011;10522;52.198;9.890;2023-12-20T14:00:32;4.40;;;0.80;;
20721;SDS011;10522;52.198;9.890;2023-12-20T14:02:58;7.23;;;1.00;;
20721;SDS011;10522;52.198;9.890;2023-12-20T14:05:23;6.53;;;1.20;;
20721;SDS011;10522;52.198;9.890;2023-12-20T14:07:49;2.20;;;0.97;;
20721;SDS011;10522;52.198;9.890;2023-12-20T14:10:15;4.07;;;1.10;;
20721;SDS011;10522;52.198;9.890;2023-12-20T14:12:41;3.87;;;1.30;;
20721;SDS011;10522;52.198;9.890;2023-12-20T14:15:07;3.20;;;1.17;;
20721;SDS011;10522;52.198;9.890;2023-12-20T14:17:38;6.73;;;1.40;;
20721;SDS011;10522;52.198;9.890;2023-12-20T14:20:05;4.70;;;1.63;;
20721;SDS011;10522;52.198;9.890;2023-12-20T14:22:32;6.80;;;1.33;;
20721;SDS011;10522;52.198;9.890;2023-12-20T14:24:57;7.00;;;1.67;;
20721;SDS011;10522;52.198;9.890;2023-12-20T14:27:23;4.37;;;1.50;;
20721;SDS011;10522;52.198;9.890;2023-12-20T14:29:52;3.37;;;1.57;;
20721;SDS011;10522;52.198;9.890;2023-12-20T14:32:18;4.27;;;1.60;;
20721;SDS011;10522;52.198;9.890;2023-12-20T14:34:44;5.97;;;1.63;;
20721;SDS011;10522;52.198;9.890;2023-12-20T14:37:09;2.73;;;0.90;;
20721;SDS011;10522;52.198;9.890;2023-12-20T14:39:35;8.97;;;1.63;;
20721;SDS011;10522;52.198;9.890;2023-12-20T14:42:06;3.53;;;1.30;;
20721;SDS011;10522;52.198;9.890;2023-12-20T14:44:34;7.37;;;1.50;;
20721;SDS011;10522;52.198;9.890;2023-12-20T14:47:00;5.57;;;1.50;;
20721;SDS011;10522;52.198;9.890;2023-12-20T14:49:27;6.73;;;2.03;;